Time;durP1;ratioP1;P1;durP2;ratioP2;P2;SDS_P1;SDS_P2;PMS_P1;PMS_P2;Temp;Humidity;BMP_temperature;BMP_pressure;BME280_temperature;BME280_humidity;BME280_pressure;Samples;Min_cycle;Max_cycle;Signal;HPM_P1;HPM_P2
2022/08/19 00:00:19;;;;;;;10.18;4.18;;;21.70;98.70;;;;;;5018364;28;20021;-74
2022/08/19 00:02:46;;;;;;;9.55;4.18;;;22.30;99.20;;;;;;5030461;28;20029;-75
2022/08/19 00:05:13;;;;;;;13.38;4.28;;;22.30;99.00;;;;;;5038026;28;20021;-76
2022/08/19 00:07:39;;;;;;;8.73;3.95;;;22.30;99.10;;;;;;5038379;28;20703;-76
2022/08/19 00:10:07;;;;;;;17.27;4.68;;;22.30;99.90;;;;;;5037991;28;20029;-76
2022/08/19 00:12:33;;;;;;;9.25;3.97;;;22.40;99.30;;;;;;5038100;28;20671;-74
2022/08/19 00:14:59;;;;;;;10.30;3.60;;;22.70;99.90;;;;;;5019811;28;20021;-75
2022/08/19 00:17:25;;;;;;;8.45;3.95;;;23.00;99.90;;;;;;5036815;28;20056;-75
2022/08/19 00:19:51;;;;;;;8.38;4.47;;;23.40;99.90;;;;;;5037297;28;20072;-76
2022/08/19 00:22:17;;;;;;;9.85;3.35;;;23.00;99.20;;;;;;5037581;28;20664;-79
2022/08/19 00:24:49;;;;;;;10.23;4.43;;;23.10;98.90;;;;;;5035825;28;20510;-75
2022/08/19 00:27:16;;;;;;;13.38;4.57;;;23.10;98.10;;;;;;5037949;28;20064;-75
2022/08/19 00:29:41;;;;;;;9.32;4.70;;;22.70;98.40;;;;;;5037551;28;20013;-75
2022/08/19 00:32:07;;;;;;;9.23;4.05;;;22.70;99.30;;;;;;5037662;28;20025;-76
2022/08/19 00:34:33;;;;;;;14.15;4.28;;;22.70;99.60;;;;;;5036538;28;20745;-75
2022/08/19 00:36:59;;;;;;;14.95;5.72;;;22.80;99.40;;;;;;5038713;28;20049;-76
2022/08/19 00:39:25;;;;;;;14.73;4.85;;;22.70;98.90;;;;;;5039903;28;20057;-75
2022/08/19 00:41:52;;;;;;;15.13;5.00;;;22.40;99.00;;;;;;5039697;28;20136;-75
2022/08/19 00:44:22;;;;;;;8.88;4.38;;;22.20;99.40;;;;;;5041478;28;20025;-75
2022/08/19 00:46:49;;;;;;;10.95;4.10;;;22.10;99.90;;;;;;5041221;28;20024;-75
2022/08/19 00:49:23;;;;;;;10.95;4.38;;;21.90;99.90;;;;;;5041089;28;20515;-74
2022/08/19 00:51:54;;;;;;;15.07;4.75;;;21.80;99.90;;;;;;5041297;28;20082;-75
2022/08/19 00:54:21;;;;;;;11.77;4.95;;;21.80;99.90;;;;;;5041203;28;20009;-75
2022/08/19 00:56:48;;;;;;;20.08;7.55;;;21.60;99.90;;;;;;5041178;28;20017;-75
2022/08/19 00:59:15;;;;;;;26.00;12.35;;;21.60;99.90;;;;;;5041153;28;20146;-76
2022/08/19 01:01:44;;;;;;;15.65;6.75;;;21.60;99.90;;;;;;5023398;28;20090;-75
2022/08/19 01:04:11;;;;;;;11.70;5.32;;;21.60;99.90;;;;;;5040992;28;20057;-76
2022/08/19 01:06:41;;;;;;;22.05;9.80;;;21.60;99.90;;;;;;5040647;28;20022;-76
2022/08/19 01:09:08;;;;;;;23.40;9.27;;;21.60;99.90;;;;;;5041068;28;20023;-75
2022/08/19 01:11:39;;;;;;;18.50;9.18;;;21.50;99.90;;;;;;5041133;28;20096;-76
2022/08/19 01:14:06;;;;;;;22.35;9.50;;;21.50;99.90;;;;;;5040254;28;20036;-76
2022/08/19 01:16:34;;;;;;;11.15;4.70;;;21.60;99.90;;;;;;5039368;28;20135;-82
2022/08/19 01:19:01;;;;;;;10.68;5.10;;;21.80;99.90;;;;;;5040651;28;20035;-76
2022/08/19 01:21:31;;;;;;;13.07;5.60;;;21.70;99.90;;;;;;5040229;28;20545;-76
2022/08/19 01:23:57;;;;;;;15.30;5.60;;;21.70;99.90;;;;;;5039187;28;20027;-76
2022/08/19 01:26:25;;;;;;;14.35;5.63;;;21.70;99.90;;;;;;5040802;28;20016;-78
2022/08/19 01:28:53;;;;;;;13.30;5.15;;;22.20;99.90;;;;;;5040596;28;20029;-75
2022/08/19 01:31:23;;;;;;;13.85;5.78;;;23.50;99.90;;;;;;5040104;28;20040;-76
2022/08/19 01:33:53;;;;;;;12.48;5.38;;;22.30;99.90;;;;;;5040310;28;20045;-76
2022/08/19 01:36:26;;;;;;;11.63;5.13;;;22.50;99.90;;;;;;5042577;28;20017;-75
2022/08/19 01:38:56;;;;;;;11.77;5.10;;;22.60;99.90;;;;;;5043133;28;20040;-77
2022/08/19 01:41:23;;;;;;;12.63;5.85;;;24.30;99.90;;;;;;5044006;28;20028;-75
2022/08/19 01:43:49;;;;;;;10.90;4.88;;;23.00;99.40;;;;;;5043296;28;20038;-75
2022/08/19 01:46:15;;;;;;;12.65;5.75;;;23.10;99.40;;;;;;5041877;28;20013;-76
2022/08/19 01:48:42;;;;;;;9.15;4.18;;;22.90;99.50;;;;;;5040240;28;20032;-75
2022/08/19 01:51:09;;;;;;;9.30;4.60;;;22.90;99.30;;;;;;5008797;28;20061;-75
2022/08/19 01:53:36;;;;;;;10.48;4.38;;;22.70;98.90;;;;;;5019026;28;20112;-76
2022/08/19 01:56:02;;;;;;;12.77;4.60;;;22.30;99.20;;;;;;5018308;28;20026;-77
2022/08/19 01:58:36;;;;;;;11.70;4.53;;;21.90;99.90;;;;;;5017970;28;20030;-76
2022/08/19 02:01:03;;;;;;;12.95;4.75;;;21.70;99.90;;;;;;5018701;28;20040;-75
2022/08/19 02:03:29;;;;;;;13.20;4.78;;;21.50;99.90;;;;;;5018353;28;20030;-75
2022/08/19 02:06:01;;;;;;;10.85;4.68;;;21.30;99.90;;;;;;5017923;28;20033;-75
2022/08/19 02:08:28;;;;;;;11.38;4.30;;;21.20;99.90;;;;;;5018477;28;20029;-75
2022/08/19 02:10:54;;;;;;;9.93;4.20;;;21.10;99.90;;;;;;5017744;28;20041;-74
2022/08/19 02:13:20;;;;;;;12.55;4.43;;;21.20;99.90;;;;;;5017429;28;20147;-75
2022/08/19 02:15:45;;;;;;;16.10;4.68;;;21.30;99.90;;;;;;5016935;28;20231;-75
2022/08/19 02:18:11;;;;;;;8.52;4.70;;;21.90;99.90;;;;;;5017056;28;20687;-75
2022/08/19 02:20:42;;;;;;;13.23;5.07;;;21.50;99.90;;;;;;5016906;28;20045;-75
2022/08/19 02:23:09;;;;;;;9.63;5.00;;;22.20;99.90;;;;;;5037236;28;20061;-75
2022/08/19 02:25:36;;;;;;;10.18;4.63;;;;;;;;;;5039778;28;20024;-75
2022/08/19 02:28:02;;;;;;;10.60;4.75;;;22.20;99.90;;;;;;5039264;28;20021;-75
2022/08/19 02:30:27;;;;;;;11.45;5.32;;;22.50;99.90;;;;;;5039563;28;20790;-75
2022/08/19 02:32:53;;;;;;;9.05;4.55;;;22.50;99.90;;;;;;5039606;28;20032;-75
2022/08/19 02:35:20;;;;;;;11.35;4.85;;;22.70;99.90;;;;;;5039480;28;20055;-75
2022/08/19 02:40:35;;;;;;;9.18;4.80;;;22.60;99.90;;;;;;5039576;28;20031;-75
2022/08/19 02:43:07;;;;;;;11.45;4.57;;;24.20;99.90;;;;;;5013076;28;20026;-75
2022/08/19 02:45:34;;;;;;;11.85;4.47;;;23.10;99.60;;;;;;5018590;28;20567;-74
2022/08/19 02:48:01;;;;;;;12.10;4.53;;;21.90;99.30;;;;;;5018368;28;20285;-75
2022/08/19 02:50:27;;;;;;;11.00;5.13;;;23.30;99.30;;;;;;5001845;28;20053;-76
2022/08/19 02:52:53;;;;;;;11.52;5.03;;;23.90;99.60;;;;;;5017967;28;20740;-75
2022/08/19 02:55:20;;;;;;;12.50;4.63;;;23.20;99.40;;;;;;5017723;28;20124;-75
2022/08/19 02:57:46;;;;;;;14.10;4.70;;;23.50;98.70;;;;;;5034243;28;20040;-75
2022/08/19 03:00:15;;;;;;;12.75;5.07;;;22.70;98.80;;;;;;5018779;28;20588;-77
2022/08/19 03:02:41;;;;;;;12.00;5.15;;;21.90;99.70;;;;;;5018718;28;20666;-76
2022/08/19 03:05:09;;;;;;;14.85;4.95;;;21.80;99.90;;;;;;5019438;28;20025;-79
2022/08/19 03:07:36;;;;;;;14.65;5.00;;;21.60;99.90;;;;;;5019355;28;20056;-79
2022/08/19 03:10:02;;;;;;;12.73;4.43;;;20.70;99.90;;;;;;5001498;28;20060;-76
2022/08/19 03:12:29;;;;;;;10.45;4.53;;;21.00;99.90;;;;;;5002119;28;20021;-76
2022/08/19 03:14:55;;;;;;;12.30;4.30;;;20.80;99.90;;;;;;5019412;28;20052;-76
2022/08/19 03:17:21;;;;;;;11.25;4.18;;;20.70;99.90;;;;;;5019273;28;20710;-76
2022/08/19 03:19:46;;;;;;;12.57;4.40;;;20.60;99.90;;;;;;5023315;28;20188;-76
2022/08/19 03:22:12;;;;;;;16.85;5.82;;;20.70;99.90;;;;;;5039289;28;20083;-76
2022/08/19 03:24:38;;;;;;;10.43;5.40;;;20.70;99.90;;;;;;5039126;28;20221;-77
2022/08/19 03:27:04;;;;;;;13.65;5.13;;;20.70;99.90;;;;;;5039251;28;20025;-77
2022/08/19 03:29:31;;;;;;;12.13;6.35;;;20.50;99.90;;;;;;5037535;28;20491;-76
2022/08/19 03:32:03;;;;;;;12.00;5.45;;;20.30;99.90;;;;;;5021082;28;20063;-76
2022/08/19 03:34:30;;;;;;;12.35;5.45;;;20.30;99.90;;;;;;5021335;28;20017;-77
2022/08/19 03:37:00;;;;;;;12.70;5.22;;;20.20;99.90;;;;;;5038390;28;20029;-74
2022/08/19 03:39:27;;;;;;;10.18;4.60;;;20.20;99.90;;;;;;5020743;28;20040;-77
2022/08/19 03:41:56;;;;;;;10.15;4.63;;;20.10;99.90;;;;;;5020131;28;20017;-75
2022/08/19 03:44:23;;;;;;;8.88;4.25;;;20.10;99.90;;;;;;5077361;22;20060;-77
2022/08/19 03:47:01;;;;;;;8.40;3.85;;;20.10;99.90;;;;;;5041405;28;20017;-79
2022/08/19 03:52:12;;;;;;;12.23;5.28;;;20.60;99.90;;;;;;5073479;22;20098;-83
2022/08/19 03:54:39;;;;;;;12.27;5.03;;;20.60;99.90;;;;;;5063421;28;20146;-80
2022/08/19 03:57:05;;;;;;;9.77;4.70;;;20.90;99.90;;;;;;5077025;28;20023;-74
2022/08/19 03:59:35;;;;;;;11.90;4.78;;;19.10;99.90;;;;;;5075788;28;20059;-73
2022/08/19 04:02:08;;;;;;;10.30;3.83;;;20.50;99.90;;;;;;5076938;28;20069;-74
2022/08/19 04:04:35;;;;;;;9.77;4.45;;;20.60;99.90;;;;;;5077459;28;20024;-73
2022/08/19 04:07:01;;;;;;;8.73;4.05;;;21.00;99.90;;;;;;5077367;28;20017;-76
2022/08/19 04:09:27;;;;;;;11.75;4.22;;;21.10;99.90;;;;;;5077316;28;20019;-74
2022/08/19 04:11:56;;;;;;;13.00;4.50;;;21.50;99.90;;;;;;5077748;28;20658;-75
2022/08/19 04:14:28;;;;;;;8.82;4.80;;;21.70;99.90;;;;;;5081261;28;20016;-74
2022/08/19 04:16:54;;;;;;;15.57;7.90;;;21.70;99.90;;;;;;5081020;28;20038;-73
2022/08/19 04:19:20;;;;;;;14.38;6.80;;;21.40;99.90;;;;;;5078758;28;20036;-74
2022/08/19 04:21:48;;;;;;;13.75;5.07;;;21.10;99.90;;;;;;5079531;28;20070;-74
2022/08/19 04:24:14;;;;;;;12.40;5.20;;;21.40;99.90;;;;;;5079719;28;20028;-74
2022/08/19 04:26:41;;;;;;;14.73;5.35;;;21.40;99.90;;;;;;5080796;28;20024;-73
2022/08/19 04:29:17;;;;;;;8.65;4.38;;;21.60;99.90;;;;;;5081094;28;20032;-74
2022/08/19 04:31:44;;;;;;;13.30;5.45;;;21.80;99.90;;;;;;5080681;28;20023;-76
2022/08/19 04:34:12;;;;;;;11.45;4.25;;;22.10;99.90;;;;;;5081369;28;20052;-75
2022/08/19 04:36:41;;;;;;;17.27;5.03;;;22.40;99.90;;;;;;5081250;28;20502;-75
2022/08/19 04:39:16;;;;;;;10.05;5.00;;;22.60;99.90;;;;;;5081170;28;20101;-75
2022/08/19 04:44:30;;;;;;;22.65;5.38;;;22.80;99.90;;;;;;5061463;28;20122;-76
2022/08/19 04:46:56;;;;;;;11.32;4.47;;;23.00;99.90;;;;;;5042769;28;20053;-75
2022/08/19 04:49:23;;;;;;;12.73;5.15;;;23.10;99.90;;;;;;5060417;28;20009;-77
2022/08/19 04:51:53;;;;;;;17.88;5.38;;;23.10;99.60;;;;;;5042691;28;20048;-77
2022/08/19 04:54:27;;;;;;;12.23;4.50;;;23.30;99.90;;;;;;5042799;28;20052;-80
2022/08/19 04:56:53;;;;;;;11.40;5.18;;;23.90;99.90;;;;;;5060747;28;20040;-77
2022/08/19 04:59:20;;;;;;;15.38;4.82;;;23.50;99.90;;;;;;5060561;28;20024;-76
2022/08/19 05:01:49;;;;;;;9.98;4.35;;;23.00;99.90;;;;;;5042795;28;20024;-77
2022/08/19 05:04:19;;;;;;;10.50;4.25;;;23.30;99.90;;;;;;5060669;28;20089;-77
2022/08/19 05:06:47;;;;;;;15.02;4.72;;;23.80;99.90;;;;;;5042403;28;20023;-77
2022/08/19 05:09:14;;;;;;;11.07;4.45;;;23.20;99.60;;;;;;5060395;28;20021;-77
2022/08/19 05:11:40;;;;;;;16.77;5.68;;;23.50;99.90;;;;;;5060955;28;20046;-76
2022/08/19 05:14:07;;;;;;;22.17;5.28;;;23.40;99.90;;;;;;5060841;28;20016;-77
2022/08/19 05:16:33;;;;;;;13.43;4.97;;;23.70;99.70;;;;;;5060305;28;20071;-76
2022/08/19 05:24:29;;;;;;;11.60;4.78;;;;;;;;;;5059488;28;20048;-76
2022/08/19 05:26:57;;;;;;;7.97;3.83;;;22.70;99.20;;;;;;5060229;28;20020;-77
2022/08/19 05:29:25;;;;;;;10.45;3.75;;;23.00;99.90;;;;;;5059748;28;20101;-75
2022/08/19 05:31:53;;;;;;;15.23;4.50;;;22.90;99.90;;;;;;5059801;28;20021;-77
2022/08/19 05:34:21;;;;;;;18.15;5.22;;;22.30;99.90;;;;;;5059862;28;20025;-77
2022/08/19 05:36:49;;;;;;;12.75;4.93;;;21.50;99.90;;;;;;5059732;28;20481;-75
2022/08/19 05:39:20;;;;;;;14.30;5.13;;;22.80;99.90;;;;;;5060142;28;20071;-76
2022/08/19 05:41:49;;;;;;;13.20;5.22;;;22.70;99.90;;;;;;5041848;28;20040;-76
2022/08/19 05:44:16;;;;;;;11.57;3.97;;;22.80;99.60;;;;;;5060028;28;20029;-76
2022/08/19 05:46:46;;;;;;;12.30;4.50;;;22.70;99.70;;;;;;5060075;28;20651;-75
2022/08/19 05:49:13;;;;;;;8.85;4.32;;;22.70;99.90;;;;;;5042206;28;20047;-77
2022/08/19 05:51:39;;;;;;;11.25;4.22;;;22.70;99.90;;;;;;5060625;28;20048;-76
2022/08/19 05:54:07;;;;;;;10.00;4.68;;;22.70;99.90;;;;;;5060640;28;20748;-76
2022/08/19 05:56:37;;;;;;;10.38;5.03;;;22.80;99.90;;;;;;5060174;28;20021;-76
2022/08/19 05:59:09;;;;;;;13.32;5.13;;;22.80;99.90;;;;;;5059569;28;20040;-79
2022/08/19 06:01:37;;;;;;;12.18;3.97;;;23.10;99.90;;;;;;5058132;28;20115;-76
2022/08/19 06:04:03;;;;;;;12.90;5.80;;;23.20;99.90;;;;;;5059305;28;20025;-78
2022/08/19 06:06:29;;;;;;;14.15;7.05;;;23.10;99.90;;;;;;5059522;28;20035;-76
2022/08/19 06:08:55;;;;;;;15.60;6.80;;;23.20;99.90;;;;;;5059447;28;20033;-77
2022/08/19 06:11:25;;;;;;;12.05;5.03;;;23.20;99.90;;;;;;5059055;28;20074;-74
2022/08/19 06:13:53;;;;;;;19.58;6.82;;;23.20;99.90;;;;;;5059136;28;20020;-76
2022/08/19 06:16:23;;;;;;;13.40;5.18;;;23.20;99.90;;;;;;5041261;28;20064;-75
2022/08/19 06:18:52;;;;;;;16.02;6.63;;;23.50;99.90;;;;;;5041219;28;20166;-76
2022/08/19 06:21:23;;;;;;;14.52;6.32;;;23.50;99.90;;;;;;5058697;28;20672;-75
2022/08/19 06:23:50;;;;;;;11.55;6.25;;;23.70;99.30;;;;;;5039585;28;20061;-73
2022/08/19 06:26:18;;;;;;;11.20;4.95;;;23.70;99.60;;;;;;5040472;28;20153;-75
2022/08/19 06:28:50;;;;;;;15.70;6.47;;;23.80;99.30;;;;;;5040432;28;20025;-75
2022/08/19 06:31:25;;;;;;;12.40;5.43;;;25.60;99.80;;;;;;5040450;28;20028;-76
2022/08/19 06:33:51;;;;;;;14.68;5.00;;;24.00;99.50;;;;;;5041351;28;20461;-75
2022/08/19 06:36:26;;;;;;;12.63;5.85;;;23.90;99.20;;;;;;5058832;28;20261;-76
2022/08/19 06:38:57;;;;;;;10.85;5.38;;;24.00;99.30;;;;;;5041010;28;20032;-77
2022/08/19 06:41:24;;;;;;;16.85;6.72;;;24.20;99.00;;;;;;5041884;28;20016;-76
2022/08/19 06:43:52;;;;;;;14.73;5.22;;;24.30;99.60;;;;;;5075938;28;20131;-77
2022/08/19 06:46:19;;;;;;;14.27;6.38;;;24.40;99.70;;;;;;5079921;28;20020;-76
2022/08/19 06:48:45;;;;;;;17.30;6.95;;;;;;;;;;5079180;28;20027;-73
2022/08/19 06:51:18;;;;;;;15.55;6.45;;;24.60;98.30;;;;;;5061209;28;20020;-74
2022/08/19 06:53:46;;;;;;;11.95;5.97;;;27.10;99.00;;;;;;5079132;28;20627;-78
2022/08/19 06:56:18;;;;;;;15.02;5.38;;;25.10;98.40;;;;;;5061545;28;20032;-82
2022/08/19 06:58:46;;;;;;;15.52;6.15;;;24.60;98.80;;;;;;5061356;28;20036;-80
2022/08/19 07:01:13;;;;;;;14.75;6.07;;;24.90;99.60;;;;;;5065745;28;20047;-82
2022/08/19 07:03:46;;;;;;;10.60;5.97;;;24.70;98.70;;;;;;5065444;28;20032;-80
2022/08/19 07:06:17;;;;;;;;;;;25.00;98.20;;;;;;5062499;28;20032;-77
2022/08/19 07:08:46;;;;;;;14.70;5.50;;;25.00;98.00;;;;;;5079831;28;19904;-80
2022/08/19 07:11:18;;;;;;;13.52;5.80;;;24.70;97.50;;;;;;5063955;28;20032;-78
2022/08/19 07:13:45;;;;;;;15.40;6.20;;;25.30;97.90;;;;;;5060915;28;20283;-83
2022/08/19 07:16:16;;;;;;;13.07;5.47;;;25.30;97.80;;;;;;5061405;28;20028;-77
2022/08/19 07:18:44;;;;;;;12.02;5.53;;;25.40;96.70;;;;;;5060924;28;20016;-81
2022/08/19 07:21:26;;;;;;;16.15;6.18;;;25.30;97.00;;;;;;5061561;28;20085;-83
2022/08/19 07:24:03;;;;;;;14.05;5.65;;;25.50;96.50;;;;;;5061245;28;20111;-81
2022/08/19 07:30:16;;;;;;;;;;;;;;;;;;;;;
2022/08/19 07:37:12;;;;;;;12.60;4.93;;;27.30;95.90;;;;;;5179247;23;20077;-89
2022/08/19 07:40:26;;;;;;;15.50;5.22;;;26.10;96.00;;;;;;4956403;29;20099;-83
2022/08/19 07:43:28;;;;;;;10.70;5.10;;;26.50;95.40;;;;;;4911370;29;20078;-83
2022/08/19 07:46:14;;;;;;;17.25;5.65;;;26.20;95.50;;;;;;4903694;29;20040;-84
2022/08/19 07:48:55;;;;;;;17.27;4.75;;;27.20;94.90;;;;;;4903616;29;20123;-85
2022/08/19 07:51:27;;;;;;;13.10;4.90;;;26.40;95.60;;;;;;4895354;29;20133;-80
2022/08/19 07:53:53;;;;;;;14.60;6.22;;;26.50;95.40;;;;;;4877696;29;20697;-80
2022/08/19 07:56:35;;;;;;;14.95;5.65;;;26.40;94.80;;;;;;4881071;29;20028;-82
2022/08/19 07:59:23;;;;;;;13.68;5.72;;;26.40;95.40;;;;;;4881059;29;20602;-82
2022/08/19 08:02:02;;;;;;;10.15;4.95;;;26.30;95.20;;;;;;4865276;29;20131;-83
2022/08/19 08:11:02;;;;;;;16.20;5.22;;;29.60;95.50;;;;;;4795438;29;20768;-82
2022/08/19 08:13:35;;;;;;;14.93;5.88;;;27.50;94.20;;;;;;4862730;29;20355;-81
2022/08/19 08:16:10;;;;;;;13.90;5.65;;;27.60;94.00;;;;;;4943230;28;20022;-81
2022/08/19 08:21:48;;;;;;;12.32;5.43;;;28.10;93.60;;;;;;5059048;28;20039;-80
2022/08/19 08:24:18;;;;;;;17.63;5.28;;;28.10;92.30;;;;;;5061569;28;20008;-85
2022/08/19 08:26:53;;;;;;;16.20;6.03;;;28.10;93.10;;;;;;5060320;28;20502;-83
2022/08/19 08:32:14;;;;;;;18.75;5.57;;;28.30;93.10;;;;;;5077954;28;20028;-81
2022/08/19 08:34:40;;;;;;;12.20;5.53;;;28.70;92.20;;;;;;5077926;28;20684;-78
2022/08/19 08:37:08;;;;;;;18.27;8.35;;;29.10;91.90;;;;;;5078184;28;20028;-78
2022/08/19 08:39:34;;;;;;;13.93;5.30;;;;;;;;;;5072685;28;20040;-82
2022/08/19 08:42:19;;;;;;;15.73;6.03;;;29.30;90.60;;;;;;5062633;28;20221;-79
2022/08/19 08:44:59;;;;;;;11.73;5.03;;;29.30;90.30;;;;;;5039622;28;20532;-78
2022/08/19 08:47:34;;;;;;;13.88;6.88;;;29.70;90.60;;;;;;5039183;28;20094;-75
2022/08/19 08:50:22;;;;;;;15.98;5.57;;;30.40;89.80;;;;;;5040626;28;20020;-78
2022/08/19 08:52:53;;;;;;;12.23;5.60;;;30.00;89.10;;;;;;5040141;28;20048;-81
2022/08/19 08:55:22;;;;;;;12.98;5.35;;;30.10;88.90;;;;;;5040482;28;20033;-78
2022/08/19 08:57:48;;;;;;;13.82;5.28;;;30.00;88.00;;;;;;5041621;28;20025;-78
2022/08/19 09:00:22;;;;;;;13.43;5.40;;;30.10;89.20;;;;;;5062002;28;20039;-78
2022/08/19 09:02:48;;;;;;;14.05;5.28;;;30.40;88.90;;;;;;5044451;28;20028;-77
2022/08/19 09:05:14;;;;;;;16.33;6.38;;;30.70;87.40;;;;;;5064324;28;20283;-79
2022/08/19 09:07:47;;;;;;;16.52;7.00;;;30.80;86.40;;;;;;5043223;28;20245;-75
2022/08/19 09:10:31;;;;;;;12.75;4.53;;;30.90;85.40;;;;;;5061273;28;20064;-77
2022/08/19 09:13:22;;;;;;;14.45;5.13;;;30.90;85.50;;;;;;5059905;28;20028;-79
2022/08/19 09:15:57;;;;;;;13.52;5.55;;;30.70;85.50;;;;;;5064667;28;20043;-78
2022/08/19 09:18:23;;;;;;;17.48;6.25;;;30.70;85.60;;;;;;5029512;28;20118;-77
2022/08/19 09:20:52;;;;;;;11.50;4.88;;;30.80;85.50;;;;;;5039376;28;20036;-85
2022/08/19 09:23:22;;;;;;;17.83;5.55;;;30.90;84.50;;;;;;5037934;28;20040;-82
2022/08/19 09:25:48;;;;;;;13.32;4.85;;;31.00;83.90;;;;;;5041437;28;20052;-77
2022/08/19 09:28:14;;;;;;;10.30;4.85;;;30.80;84.90;;;;;;5041383;28;20064;-78
2022/08/19 09:30:44;;;;;;;17.55;4.72;;;30.50;85.40;;;;;;5041829;28;20605;-79
2022/08/19 09:33:12;;;;;;;13.70;5.47;;;32.20;87.00;;;;;;5044765;28;20025;-78
2022/08/19 09:35:47;;;;;;;18.38;5.47;;;30.10;87.80;;;;;;5063931;28;20035;-80
2022/08/19 09:38:13;;;;;;;18.83;5.38;;;30.00;86.90;;;;;;5089859;28;20688;-81
2022/08/19 09:40:42;;;;;;;15.60;4.72;;;30.00;87.00;;;;;;5082306;28;20046;-82
2022/08/19 09:43:12;;;;;;;14.93;5.25;;;30.10;86.00;;;;;;5073540;28;20035;-77
2022/08/19 09:45:51;;;;;;;13.30;4.97;;;30.40;87.00;;;;;;5063170;28;20016;-78
2022/08/19 09:48:17;;;;;;;19.00;6.03;;;29.00;84.60;;;;;;5080977;28;20028;-80
2022/08/19 09:50:51;;;;;;;12.98;5.20;;;30.20;85.20;;;;;;5080982;28;20020;-81
2022/08/19 09:53:22;;;;;;;13.63;5.32;;;30.20;85.20;;;;;;5062735;28;20020;-77
2022/08/19 09:55:51;;;;;;;11.98;5.57;;;30.30;86.60;;;;;;5062282;28;20023;-80
2022/08/19 09:58:27;;;;;;;17.70;5.72;;;30.40;86.70;;;;;;5062192;28;20048;-78
2022/08/19 10:00:54;;;;;;;12.98;5.75;;;30.60;89.10;;;;;;5080770;28;20012;-77
2022/08/19 10:03:20;;;;;;;14.25;6.45;;;30.90;88.30;;;;;;5079442;28;20674;-78
2022/08/19 10:05:49;;;;;;;12.90;6.45;;;30.80;88.30;;;;;;5062975;28;20082;-77
2022/08/19 10:08:25;;;;;;;17.25;6.00;;;31.10;88.40;;;;;;5062071;28;20229;-79
2022/08/19 10:10:55;;;;;;;16.73;6.20;;;31.20;87.50;;;;;;5062023;28;20019;-78
2022/08/19 10:13:24;;;;;;;16.02;6.78;;;31.50;87.30;;;;;;5081596;28;20131;-78
2022/08/19 10:16:07;;;;;;;14.55;6.03;;;31.50;86.10;;;;;;5063116;28;20012;-79
2022/08/19 10:18:37;;;;;;;14.15;5.95;;;31.50;86.70;;;;;;5061934;28;20040;-78
2022/08/19 10:21:17;;;;;;;19.35;7.32;;;30.20;84.90;;;;;;5081141;28;20517;-82
2022/08/19 10:23:49;;;;;;;17.38;6.10;;;31.20;86.50;;;;;;5062347;28;20452;-81
2022/08/19 10:26:31;;;;;;;15.10;5.43;;;31.30;86.50;;;;;;5070128;28;20539;-79
2022/08/19 10:29:05;;;;;;;15.32;5.90;;;29.50;84.00;;;;;;5082688;28;20742;-80
2022/08/19 10:31:33;;;;;;;16.90;6.25;;;31.30;85.30;;;;;;5080797;28;20035;-79
2022/08/19 10:34:00;;;;;;;12.55;6.10;;;31.80;85.70;;;;;;5100441;28;20019;-77
2022/08/19 10:36:29;;;;;;;12.93;6.40;;;31.50;84.30;;;;;;5081641;28;20069;-86
2022/08/19 10:39:11;;;;;;;21.42;6.22;;;31.70;85.00;;;;;;5081026;28;20071;-81
2022/08/19 10:41:43;;;;;;;12.25;4.90;;;31.80;83.40;;;;;;5080651;28;20028;-79
2022/08/19 10:44:11;;;;;;;14.75;5.85;;;31.90;84.50;;;;;;5075213;28;20035;-79
2022/08/19 10:46:44;;;;;;;13.68;5.88;;;31.80;82.10;;;;;;5089054;28;20024;-79
2022/08/19 10:49:13;;;;;;;17.85;5.97;;;31.80;82.60;;;;;;5067943;28;20660;-79
2022/08/19 10:56:50;;;;;;;20.60;6.45;;;31.50;84.20;;;;;;5099900;28;20668;-78
2022/08/19 10:57:24;;;;;;;14.00;6.53;;;31.50;84.50;;;;;;5098601;28;20036;-78
2022/08/19 10:59:49;;;;;;;18.20;7.28;;;29.00;83.30;;;;;;5099361;28;20081;-77
2022/08/19 11:02:24;;;;;;;12.38;5.70;;;31.40;84.70;;;;;;5081195;28;20133;-79
2022/08/19 11:04:51;;;;;;;17.52;6.97;;;31.20;87.60;;;;;;5080946;28;20127;-78
2022/08/19 11:07:23;;;;;;;18.58;6.03;;;31.20;85.70;;;;;;5079489;28;20028;-78
2022/08/19 11:09:49;;;;;;;13.88;6.25;;;;;;;;;;5041764;28;20017;-78
2022/08/19 11:12:19;;;;;;;15.45;5.85;;;31.30;84.20;;;;;;5058661;28;20658;-81
2022/08/19 11:14:49;;;;;;;19.77;6.03;;;31.30;86.80;;;;;;5039929;28;20032;-78
2022/08/19 11:17:24;;;;;;;15.48;5.95;;;31.30;85.00;;;;;;5057978;28;20120;-79
2022/08/19 11:20:03;;;;;;;18.38;8.35;;;31.40;85.20;;;;;;5041894;28;20032;-79
2022/08/19 11:22:29;;;;;;;18.73;7.78;;;31.20;85.20;;;;;;5040849;28;20020;-79
2022/08/19 11:25:08;;;;;;;14.40;6.30;;;31.40;85.10;;;;;;5059284;28;20182;-81
2022/08/19 11:27:40;;;;;;;12.68;5.78;;;31.20;83.90;;;;;;5077630;28;20032;-79
2022/08/19 11:30:16;;;;;;;21.58;5.50;;;31.20;84.90;;;;;;5081478;28;20023;-78
2022/08/19 11:32:48;;;;;;;12.10;5.30;;;31.00;84.80;;;;;;5062902;28;20028;-77
2022/08/19 11:35:26;;;;;;;16.77;6.35;;;30.90;84.40;;;;;;5070303;28;20059;-80
2022/08/19 11:37:57;;;;;;;15.95;5.35;;;30.70;85.30;;;;;;5071346;28;20024;-77
2022/08/19 11:40:31;;;;;;;19.85;4.93;;;30.70;85.60;;;;;;5061671;28;20024;-79
2022/08/19 11:43:00;;;;;;;13.32;4.63;;;31.40;83.40;;;;;;5061968;28;20628;-77
2022/08/19 11:45:32;;;;;;;11.60;4.80;;;30.60;83.40;;;;;;5062704;28;20032;-78
2022/08/19 11:48:00;;;;;;;9.68;4.50;;;31.00;83.40;;;;;;5061386;28;20020;-78
2022/08/19 11:50:26;;;;;;;18.05;5.10;;;30.60;83.20;;;;;;5049116;28;20024;-79
2022/08/19 11:52:56;;;;;;;13.25;5.50;;;30.80;81.30;;;;;;5079083;28;20074;-77
2022/08/19 11:55:25;;;;;;;11.38;4.43;;;30.40;79.60;;;;;;5079246;28;20016;-78
2022/08/19 11:58:02;;;;;;;17.70;4.88;;;30.40;81.30;;;;;;5078468;28;20042;-74
2022/08/19 12:00:28;;;;;;;13.18;4.63;;;30.40;80.30;;;;;;5078193;28;20042;-74
2022/08/19 12:02:54;;;;;;;11.52;4.70;;;34.60;83.70;;;;;;5060169;28;20013;-77
2022/08/19 12:05:20;;;;;;;15.05;5.68;;;31.20;82.00;;;;;;5057905;28;20024;-76
2022/08/19 12:07:46;;;;;;;12.18;5.35;;;30.70;80.70;;;;;;5060765;28;20031;-75
2022/08/19 12:10:12;;;;;;;14.65;5.68;;;30.70;81.00;;;;;;5080012;28;20008;-75
2022/08/19 12:12:42;;;;;;;26.90;7.13;;;30.70;81.30;;;;;;5079312;28;20022;-74
2022/08/19 12:15:10;;;;;;;15.32;5.70;;;30.80;81.60;;;;;;5078884;28;20012;-76
2022/08/19 12:17:36;;;;;;;16.67;5.40;;;28.50;79.60;;;;;;5079009;28;20078;-75
2022/08/19 12:20:04;;;;;;;18.92;5.75;;;30.20;82.00;;;;;;5080379;28;20620;-75
2022/08/19 12:22:30;;;;;;;17.90;5.07;;;31.50;84.10;;;;;;5062642;28;20367;-75
2022/08/19 12:24:56;;;;;;;19.13;5.72;;;29.90;83.80;;;;;;5079651;28;20574;-76
2022/08/19 12:27:25;;;;;;;15.65;5.70;;;29.80;84.40;;;;;;5079250;28;20546;-77
2022/08/19 12:29:51;;;;;;;18.10;5.15;;;29.80;84.80;;;;;;5078988;28;20551;-75
2022/08/19 12:32:17;;;;;;;21.30;5.53;;;27.60;83.20;;;;;;5060289;28;20042;-81
2022/08/19 12:34:44;;;;;;;15.35;4.55;;;29.70;84.00;;;;;;5066254;28;20571;-75
2022/08/19 12:37:10;;;;;;;17.13;4.30;;;;;;;;;;5061818;28;20507;-75
2022/08/19 12:39:41;;;;;;;13.02;4.45;;;29.30;80.10;;;;;;5079062;28;20051;-77
2022/08/19 12:42:08;;;;;;;10.73;4.18;;;29.70;81.90;;;;;;5064208;28;20020;-75
2022/08/19 12:44:35;;;;;;;13.32;4.45;;;29.50;82.50;;;;;;5082232;28;20103;-80
2022/08/19 12:47:02;;;;;;;11.48;4.03;;;29.50;82.90;;;;;;5081915;28;20024;-75
2022/08/19 12:49:29;;;;;;;10.90;4.32;;;27.90;81.70;;;;;;5081535;28;20012;-76
2022/08/19 12:51:55;;;;;;;17.98;4.30;;;29.40;82.80;;;;;;5081682;28;20242;-76
2022/08/19 12:54:21;;;;;;;15.88;6.05;;;29.20;83.90;;;;;;5081833;28;20662;-76
2022/08/19 12:56:46;;;;;;;14.38;4.35;;;29.30;83.70;;;;;;5063701;28;20570;-77
2022/08/19 12:59:15;;;;;;;12.60;5.47;;;;;;;;;;5063861;28;20024;-74
2022/08/19 13:01:44;;;;;;;12.68;3.30;;;29.20;82.70;;;;;;5081267;28;20008;-74
2022/08/19 13:04:10;;;;;;;12.43;3.38;;;29.10;76.40;;;;;;5081303;28;20028;-76
2022/08/19 13:06:36;;;;;;;16.25;4.20;;;;;;;;;;5081164;28;20514;-77
2022/08/19 13:09:03;;;;;;;15.23;4.18;;;28.80;76.20;;;;;;5062955;28;20541;-74
2022/08/19 13:11:32;;;;;;;9.80;2.97;;;28.70;76.70;;;;;;5081498;28;20083;-76
2022/08/19 13:14:11;;;;;;;15.25;3.55;;;28.80;72.60;;;;;;5064708;28;20213;-84
2022/08/19 13:16:41;;;;;;;11.50;3.58;;;28.90;71.40;;;;;;5063314;28;20032;-87
2022/08/19 13:19:07;;;;;;;15.60;4.10;;;29.30;75.60;;;;;;5066476;28;20701;-83
2022/08/19 13:21:33;;;;;;;11.93;3.15;;;29.20;74.60;;;;;;5064120;28;20020;-79
2022/08/19 13:23:59;;;;;;;17.40;5.88;;;29.10;72.70;;;;;;5080605;28;20039;-79
2022/08/19 13:26:25;;;;;;;15.63;4.57;;;29.20;71.00;;;;;;5062553;28;20031;-80
2022/08/19 13:34:39;;;;;;;15.07;2.97;;;29.80;62.00;;;;;;5082017;28;20088;-83